Time;durP1;ratioP1;P1;durP2;ratioP2;P2;SDS_P1;SDS_P2;PMS_P1;PMS_P2;Temp;Humidity;BMP_temperature;BMP_pressure;BME280_temperature;BME280_humidity;BME280_pressure;Samples;Min_cycle;Max_cycle;Signal;HPM_P1;HPM_P2
2021/05/12 00:00:26;;;;;;;0.90;0.30;;;24.70;50.90;;;;;;5033799;28;20021;-45
2021/05/12 00:02:53;;;;;;;0.50;0.20;;;24.70;50.40;;;;;;5030781;28;20560;-44
2021/05/12 00:05:24;;;;;;;0.60;0.30;;;24.70;50.30;;;;;;5020727;28;20041;-43
2021/05/12 00:07:51;;;;;;;0.82;0.30;;;24.70;50.40;;;;;;5015022;28;20030;-45
2021/05/12 00:10:18;;;;;;;0.60;0.20;;;24.70;50.40;;;;;;5029949;28;20063;-45
2021/05/12 00:12:44;;;;;;;0.50;0.20;;;24.70;50.40;;;;;;5029473;28;20029;-46
2021/05/12 00:15:14;;;;;;;2.67;0.20;;;24.60;50.30;;;;;;5039718;28;20041;-45
2021/05/12 00:17:42;;;;;;;0.47;0.20;;;24.60;50.40;;;;;;5026343;28;20048;-44
2021/05/12 00:20:10;;;;;;;2.17;0.20;;;24.60;50.30;;;;;;5025585;28;20022;-45
2021/05/12 00:22:46;;;;;;;0.73;0.20;;;24.60;50.30;;;;;;5037164;28;20024;-45
2021/05/12 00:25:13;;;;;;;0.55;0.20;;;24.60;50.30;;;;;;5028938;28;21509;-45
2021/05/12 00:27:39;;;;;;;0.45;0.10;;;24.60;50.30;;;;;;5028724;28;20037;-44
2021/05/12 00:30:07;;;;;;;0.50;0.20;;;24.60;50.30;;;;;;5018395;28;20029;-41
2021/05/12 00:32:33;;;;;;;0.52;0.20;;;24.60;50.30;;;;;;5035264;28;20032;-45
2021/05/12 00:34:59;;;;;;;0.50;0.20;;;24.60;50.30;;;;;;5023119;28;20022;-44
2021/05/12 00:37:25;;;;;;;0.50;0.30;;;24.60;50.30;;;;;;5032145;28;20100;-43
2021/05/12 00:39:51;;;;;;;0.90;0.20;;;24.60;50.30;;;;;;5016460;28;20104;-44
2021/05/12 00:42:17;;;;;;;0.65;0.20;;;24.60;50.30;;;;;;5035326;28;20075;-43
2021/05/12 00:44:43;;;;;;;0.47;0.17;;;24.60;50.20;;;;;;5019830;28;20053;-44
2021/05/12 00:47:09;;;;;;;0.40;0.20;;;24.50;50.20;;;;;;5029460;28;20033;-46
2021/05/12 00:49:35;;;;;;;0.77;0.20;;;24.60;50.30;;;;;;5002566;28;20130;-43
2021/05/12 00:52:03;;;;;;;0.63;0.20;;;24.50;50.20;;;;;;5038163;28;20062;-45
2021/05/12 00:54:31;;;;;;;0.50;0.20;;;24.50;50.20;;;;;;5021049;28;20041;-44
2021/05/12 00:56:57;;;;;;;0.52;0.20;;;24.50;50.20;;;;;;5029582;28;20191;-44
2021/05/12 00:59:31;;;;;;;0.70;0.20;;;24.50;50.20;;;;;;5020946;28;20108;-45
2021/05/12 01:01:57;;;;;;;0.95;0.30;;;24.50;50.20;;;;;;5031005;28;20096;-46
2021/05/12 01:04:23;;;;;;;0.40;0.20;;;24.50;50.20;;;;;;5020791;28;20030;-44
2021/05/12 01:06:49;;;;;;;0.68;0.20;;;24.50;50.20;;;;;;5035470;28;20033;-45
2021/05/12 01:09:15;;;;;;;0.35;0.10;;;24.50;50.20;;;;;;5027794;28;20021;-43
2021/05/12 01:11:41;;;;;;;0.40;0.20;;;24.50;50.20;;;;;;5037541;28;20054;-43
2021/05/12 01:14:07;;;;;;;0.57;0.20;;;24.50;50.20;;;;;;5031828;28;20040;-42
2021/05/12 01:16:33;;;;;;;0.30;0.10;;;24.50;50.20;;;;;;5018164;28;20025;-44
2021/05/12 01:18:59;;;;;;;0.20;0.10;;;24.50;50.20;;;;;;5036668;28;20025;-44
2021/05/12 01:21:25;;;;;;;0.45;0.20;;;24.50;50.10;;;;;;5031511;28;20087;-45
2021/05/12 01:23:51;;;;;;;0.30;0.20;;;24.50;50.20;;;;;;5032751;28;20040;-44
2021/05/12 01:26:20;;;;;;;0.50;0.10;;;24.40;50.10;;;;;;5019637;28;20044;-43
2021/05/12 01:28:52;;;;;;;0.40;0.20;;;24.40;50.10;;;;;;5026575;28;20033;-44
2021/05/12 01:31:29;;;;;;;0.45;0.10;;;24.40;50.10;;;;;;5031129;28;20498;-44
2021/05/12 01:33:55;;;;;;;0.63;0.22;;;24.40;50.20;;;;;;5021714;28;21624;-40
2021/05/12 01:36:21;;;;;;;0.77;0.20;;;24.40;50.20;;;;;;5018780;28;20026;-45
2021/05/12 01:38:48;;;;;;;0.40;0.10;;;24.40;50.20;;;;;;5021194;28;20026;-43
2021/05/12 01:41:14;;;;;;;0.52;0.20;;;24.40;50.20;;;;;;5023680;28;20114;-45
2021/05/12 01:43:41;;;;;;;1.10;0.20;;;24.40;50.20;;;;;;5028232;28;20032;-45
2021/05/12 01:46:08;;;;;;;0.30;0.10;;;24.40;50.20;;;;;;5025595;28;20125;-44
2021/05/12 01:48:35;;;;;;;2.70;0.20;;;24.40;50.10;;;;;;5029357;28;20487;-48
2021/05/12 01:51:02;;;;;;;0.20;0.10;;;24.40;50.10;;;;;;5024101;28;20045;-45
2021/05/12 01:53:28;;;;;;;0.45;0.20;;;24.40;50.10;;;;;;5041138;28;20517;-44
2021/05/12 01:55:55;;;;;;;1.08;0.20;;;24.40;50.20;;;;;;5017230;28;20021;-42
2021/05/12 01:58:22;;;;;;;0.60;0.10;;;24.40;50.20;;;;;;5021581;28;20033;-42
2021/05/12 02:00:50;;;;;;;0.90;0.20;;;24.40;50.20;;;;;;5028346;28;20022;-44
2021/05/12 02:03:18;;;;;;;0.38;0.17;;;24.40;50.60;;;;;;5035866;28;20116;-45
2021/05/12 02:05:45;;;;;;;0.30;0.13;;;24.40;50.10;;;;;;5022987;28;20029;-44
2021/05/12 02:08:13;;;;;;;0.55;0.20;;;24.30;50.10;;;;;;5035928;28;20033;-44
2021/05/12 02:10:41;;;;;;;0.32;0.20;;;24.30;50.10;;;;;;5026352;28;20033;-43
2021/05/12 02:13:07;;;;;;;0.32;0.10;;;24.30;50.10;;;;;;5033175;28;20111;-44
2021/05/12 02:15:34;;;;;;;0.30;0.10;;;24.30;50.20;;;;;;5029285;28;20024;-44
2021/05/12 02:17:59;;;;;;;0.47;0.10;;;24.30;50.20;;;;;;5027757;28;20025;-45
2021/05/12 02:20:29;;;;;;;1.58;0.10;;;24.30;50.20;;;;;;5035959;28;20053;-44
2021/05/12 02:22:57;;;;;;;0.50;0.10;;;24.30;50.20;;;;;;5026308;28;20112;-45
2021/05/12 02:25:24;;;;;;;0.50;0.10;;;24.30;50.20;;;;;;5028130;28;20029;-45
2021/05/12 02:27:50;;;;;;;1.67;0.10;;;24.30;50.20;;;;;;5004687;28;20494;-44
2021/05/12 02:30:16;;;;;;;0.30;0.20;;;24.30;50.20;;;;;;5033040;28;20072;-44
2021/05/12 02:32:43;;;;;;;0.55;0.20;;;24.30;50.30;;;;;;5032179;28;20029;-45
2021/05/12 02:35:10;;;;;;;0.47;0.15;;;24.30;50.20;;;;;;5029670;28;20021;-44
2021/05/12 02:37:37;;;;;;;0.30;0.10;;;24.30;50.30;;;;;;5026565;28;20113;-45
2021/05/12 02:40:08;;;;;;;0.60;0.15;;;24.30;50.20;;;;;;5031460;28;20537;-43
2021/05/12 02:42:35;;;;;;;0.43;0.20;;;24.30;50.20;;;;;;5031180;28;20025;-44
2021/05/12 02:45:02;;;;;;;0.38;0.10;;;24.30;50.20;;;;;;5029767;28;20076;-45
2021/05/12 02:47:28;;;;;;;0.40;0.10;;;24.20;50.20;;;;;;5039538;28;20040;-44
2021/05/12 02:49:54;;;;;;;0.38;0.10;;;24.20;50.20;;;;;;5036669;28;20037;-43
2021/05/12 02:52:20;;;;;;;0.40;0.20;;;24.20;50.20;;;;;;5034836;28;20037;-44
2021/05/12 02:54:46;;;;;;;0.57;0.20;;;24.20;50.20;;;;;;5028491;28;20280;-45
2021/05/12 02:57:12;;;;;;;0.35;0.17;;;24.20;50.20;;;;;;5018624;28;20060;-45
2021/05/12 02:59:38;;;;;;;0.63;0.10;;;24.20;50.20;;;;;;5032957;28;20033;-43
2021/05/12 03:02:04;;;;;;;0.40;0.10;;;24.20;50.20;;;;;;5032329;28;20021;-44
2021/05/12 03:04:30;;;;;;;0.45;0.10;;;24.20;50.30;;;;;;5024540;28;20427;-45
2021/05/12 03:06:57;;;;;;;0.45;0.10;;;24.20;50.30;;;;;;5036625;28;20185;-43
2021/05/12 03:09:27;;;;;;;0.30;0.10;;;24.20;50.20;;;;;;5029095;28;20120;-43
2021/05/12 03:11:53;;;;;;;0.45;0.20;;;24.20;50.30;;;;;;5024164;28;20060;-45
2021/05/12 03:14:20;;;;;;;2.95;0.20;;;24.20;50.20;;;;;;5028440;28;20060;-46
2021/05/12 03:16:46;;;;;;;0.25;0.10;;;24.20;50.20;;;;;;5033666;28;20079;-44
2021/05/12 03:19:13;;;;;;;0.32;0.10;;;24.10;50.30;;;;;;5029914;28;20029;-43
2021/05/12 03:21:39;;;;;;;0.80;0.17;;;24.10;50.20;;;;;;5028299;28;20051;-46
2021/05/12 03:24:06;;;;;;;3.03;0.10;;;24.10;50.20;;;;;;5029030;28;20079;-44
2021/05/12 03:26:32;;;;;;;0.85;0.20;;;24.10;50.20;;;;;;5025331;28;20109;-44
2021/05/12 03:28:59;;;;;;;0.43;0.20;;;24.10;50.20;;;;;;5028698;28;20029;-41
2021/05/12 03:31:25;;;;;;;0.82;0.10;;;24.10;50.20;;;;;;5037196;28;20029;-46
2021/05/12 03:33:55;;;;;;;0.30;0.10;;;24.10;50.20;;;;;;5032442;28;20028;-46
2021/05/12 03:36:22;;;;;;;0.30;0.10;;;24.10;50.20;;;;;;5013568;28;20072;-47
2021/05/12 03:38:48;;;;;;;0.50;0.10;;;24.10;50.20;;;;;;5021098;28;20029;-43
2021/05/12 03:41:14;;;;;;;0.40;0.10;;;24.10;50.20;;;;;;5031114;28;20032;-42
2021/05/12 03:43:40;;;;;;;0.20;0.10;;;24.10;50.20;;;;;;5034322;28;20025;-45
2021/05/12 03:46:06;;;;;;;0.98;0.10;;;24.10;50.20;;;;;;5023531;28;20031;-44
2021/05/12 03:48:32;;;;;;;0.88;0.10;;;24.10;50.20;;;;;;5038649;28;20061;-45
2021/05/12 03:50:58;;;;;;;0.63;0.13;;;24.10;50.20;;;;;;5039517;28;20120;-46
2021/05/12 03:53:25;;;;;;;1.05;0.10;;;24.10;50.20;;;;;;5033010;28;20060;-45
2021/05/12 03:55:52;;;;;;;1.38;0.28;;;24.10;50.10;;;;;;5029801;28;20382;-44
2021/05/12 03:58:18;;;;;;;0.85;0.10;;;24.00;50.10;;;;;;5031172;28;20495;-42
2021/05/12 04:00:47;;;;;;;1.05;0.10;;;24.00;50.10;;;;;;5033674;28;20084;-44
2021/05/12 04:03:14;;;;;;;0.30;0.10;;;24.00;50.20;;;;;;5011750;28;20036;-47
2021/05/12 04:05:40;;;;;;;0.40;0.10;;;24.00;50.20;;;;;;5027137;28;20068;-44
2021/05/12 04:08:06;;;;;;;0.95;0.17;;;24.00;50.20;;;;;;5031895;28;20105;-43
2021/05/12 04:10:32;;;;;;;1.20;0.30;;;24.00;50.20;;;;;;5026665;28;20086;-45
2021/05/12 04:12:58;;;;;;;0.60;0.10;;;24.00;50.20;;;;;;5028324;28;20525;-43
2021/05/12 04:15:24;;;;;;;0.20;0.10;;;24.00;50.10;;;;;;5020401;28;20041;-46
2021/05/12 04:17:50;;;;;;;0.50;0.10;;;24.00;50.10;;;;;;5031367;28;20485;-46
2021/05/12 04:20:18;;;;;;;0.82;0.10;;;24.00;50.10;;;;;;5029802;28;20033;-41
2021/05/12 04:22:45;;;;;;;0.20;0.10;;;24.10;50.10;;;;;;5031037;28;20036;-45
2021/05/12 04:25:14;;;;;;;0.55;0.10;;;24.10;50.10;;;;;;5027770;28;20061;-44
2021/05/12 04:27:40;;;;;;;1.75;0.10;;;24.00;50.10;;;;;;5029816;28;20414;-46
2021/05/12 04:30:09;;;;;;;1.13;0.10;;;24.00;50.00;;;;;;5033777;28;20121;-45
2021/05/12 04:32:36;;;;;;;0.70;0.20;;;24.00;50.10;;;;;;5036252;28;20025;-44
2021/05/12 04:35:03;;;;;;;0.47;0.10;;;24.00;50.10;;;;;;5026264;28;20096;-43
2021/05/12 04:37:29;;;;;;;0.35;0.15;;;24.00;50.10;;;;;;5020223;28;20071;-43
2021/05/12 04:39:55;;;;;;;0.30;0.10;;;24.00;50.10;;;;;;5027506;28;20663;-45
2021/05/12 04:42:20;;;;;;;0.38;0.10;;;24.00;50.10;;;;;;5029621;28;20694;-44
2021/05/12 04:44:46;;;;;;;1.05;0.10;;;24.00;50.10;;;;;;5020508;28;20121;-44
2021/05/12 04:47:12;;;;;;;0.38;0.00;;;24.00;50.00;;;;;;5015020;28;20483;-43
2021/05/12 04:49:38;;;;;;;0.52;0.10;;;24.00;50.10;;;;;;5027930;28;20398;-44
2021/05/12 04:52:05;;;;;;;0.63;0.13;;;24.00;50.00;;;;;;5021468;28;20026;-44
2021/05/12 04:54:31;;;;;;;0.30;0.10;;;24.00;50.00;;;;;;5031820;28;20033;-44
2021/05/12 04:56:57;;;;;;;0.35;0.10;;;24.00;50.00;;;;;;5018827;28;20044;-45
2021/05/12 04:59:23;;;;;;;0.50;0.10;;;24.00;50.00;;;;;;5024022;28;20033;-43
2021/05/12 05:01:49;;;;;;;0.50;0.10;;;24.00;50.00;;;;;;5027392;28;20025;-49
2021/05/12 05:04:18;;;;;;;0.65;0.10;;;24.00;50.00;;;;;;5025928;28;20033;-46
2021/05/12 05:06:44;;;;;;;0.60;0.20;;;24.00;50.00;;;;;;5020433;28;20113;-45
2021/05/12 05:09:10;;;;;;;0.30;0.20;;;24.00;49.90;;;;;;5028816;28;20171;-43
2021/05/12 05:11:36;;;;;;;0.65;0.20;;;24.00;49.90;;;;;;5028740;28;20155;-45
2021/05/12 05:14:02;;;;;;;1.75;0.20;;;24.00;49.90;;;;;;5026305;28;20403;-44
2021/05/12 05:16:28;;;;;;;0.40;0.10;;;24.00;50.00;;;;;;5031635;28;20442;-45
2021/05/12 05:18:55;;;;;;;0.25;0.10;;;24.00;49.90;;;;;;5045131;28;20475;-44
2021/05/12 05:21:21;;;;;;;0.30;0.10;;;24.00;49.90;;;;;;5034832;28;20037;-46
2021/05/12 05:23:47;;;;;;;0.70;0.30;;;24.00;49.90;;;;;;5034362;28;20043;-45
2021/05/12 05:26:13;;;;;;;1.13;0.10;;;24.00;50.00;;;;;;5028997;28;20033;-45
2021/05/12 05:28:39;;;;;;;0.20;0.10;;;23.90;50.10;;;;;;5030545;28;20033;-46
2021/05/12 05:31:05;;;;;;;0.38;0.10;;;23.90;50.10;;;;;;5029654;28;20112;-47
2021/05/12 05:33:31;;;;;;;0.30;0.10;;;24.00;50.20;;;;;;5031486;28;20033;-45
2021/05/12 05:35:57;;;;;;;0.68;0.30;;;24.00;50.10;;;;;;5021786;28;20030;-47
2021/05/12 05:38:23;;;;;;;0.43;0.10;;;24.00;50.10;;;;;;5020644;28;20068;-43
2021/05/12 05:40:49;;;;;;;1.85;0.30;;;24.00;50.10;;;;;;5021408;28;20398;-43
2021/05/12 05:43:15;;;;;;;1.45;0.20;;;23.90;50.20;;;;;;5030396;28;20083;-44
2021/05/12 05:45:42;;;;;;;1.15;0.10;;;23.90;50.30;;;;;;5018615;28;20034;-43
2021/05/12 05:48:09;;;;;;;0.55;0.10;;;24.00;50.40;;;;;;5038981;28;20079;-45
2021/05/12 05:50:35;;;;;;;1.08;0.30;;;23.90;50.30;;;;;;5033239;28;20029;-44
2021/05/12 05:53:02;;;;;;;0.60;0.13;;;23.90;50.20;;;;;;5025338;28;20030;-44
2021/05/12 05:55:28;;;;;;;4.15;0.10;;;24.00;50.20;;;;;;5025291;28;20120;-44
2021/05/12 05:57:54;;;;;;;0.65;0.10;;;24.00;50.20;;;;;;5032654;28;20439;-43
2021/05/12 06:00:21;;;;;;;2.45;0.20;;;24.00;50.20;;;;;;5048434;28;20482;-44
2021/05/12 06:02:47;;;;;;;0.95;0.22;;;24.00;50.20;;;;;;5033635;28;20067;-44
2021/05/12 06:05:13;;;;;;;0.70;0.32;;;24.00;50.20;;;;;;5031205;28;20468;-46
2021/05/12 06:07:39;;;;;;;0.90;0.30;;;24.00;50.20;;;;;;5028738;28;20028;-45
2021/05/12 06:10:07;;;;;;;0.80;0.35;;;23.90;50.60;;;;;;5039063;28;20037;-43
2021/05/12 06:12:33;;;;;;;2.20;0.43;;;24.00;50.10;;;;;;5039407;28;21036;-47
2021/05/12 06:14:59;;;;;;;2.08;0.35;;;24.00;50.10;;;;;;5018355;28;20032;-44
2021/05/12 06:17:26;;;;;;;2.35;0.30;;;24.00;50.10;;;;;;5027509;28;20622;-43
2021/05/12 06:19:53;;;;;;;2.35;0.30;;;24.00;50.00;;;;;;5021395;28;20030;-44
2021/05/12 06:22:19;;;;;;;1.15;0.20;;;24.00;49.90;;;;;;5025970;28;20025;-45
2021/05/12 06:24:45;;;;;;;5.20;0.30;;;24.00;49.90;;;;;;5036247;28;20021;-45
2021/05/12 06:27:11;;;;;;;0.75;0.50;;;24.00;49.90;;;;;;5015812;28;20068;-46
2021/05/12 06:29:38;;;;;;;1.83;0.30;;;24.00;49.90;;;;;;5044774;28;20037;-44
2021/05/12 06:32:06;;;;;;;2.00;0.20;;;24.00;49.90;;;;;;5028414;28;20021;-46
2021/05/12 06:34:34;;;;;;;0.95;0.20;;;24.00;49.90;;;;;;5033138;28;20029;-44
2021/05/12 06:37:00;;;;;;;1.65;0.30;;;24.00;49.80;;;;;;5021384;28;20037;-44
2021/05/12 06:39:26;;;;;;;3.13;0.70;;;24.00;49.90;;;;;;5011610;28;20513;-43
2021/05/12 06:41:53;;;;;;;4.93;0.55;;;23.90;49.90;;;;;;5010500;28;20026;-44
2021/05/12 06:44:20;;;;;;;6.55;1.25;;;23.70;49.90;;;;;;5013655;28;20053;-48
2021/05/12 06:46:46;;;;;;;5.22;1.88;;;23.70;50.20;;;;;;5021038;28;20022;-50
2021/05/12 06:49:13;;;;;;;4.07;2.08;;;23.70;50.50;;;;;;5024202;28;20033;-50
2021/05/12 06:51:39;;;;;;;5.07;2.60;;;23.60;50.50;;;;;;5035071;28;20705;-47
2021/05/12 06:54:05;;;;;;;5.88;2.72;;;23.60;50.60;;;;;;5025400;28;20112;-50
2021/05/12 06:56:31;;;;;;;7.40;3.10;;;23.50;50.50;;;;;;5028188;28;20030;-51
2021/05/12 06:58:57;;;;;;;4.85;2.25;;;23.40;50.40;;;;;;5027189;28;20052;-49
2021/05/12 07:01:23;;;;;;;4.20;2.50;;;23.30;50.50;;;;;;5023296;28;20025;-49
2021/05/12 07:03:49;;;;;;;6.32;1.77;;;23.30;50.50;;;;;;5029470;28;20057;-47
2021/05/12 07:06:15;;;;;;;4.68;1.85;;;23.40;50.60;;;;;;5030015;28;20034;-51
2021/05/12 07:08:41;;;;;;;3.42;1.50;;;23.50;50.50;;;;;;5025689;28;20025;-50
2021/05/12 07:11:07;;;;;;;5.43;1.60;;;23.50;50.70;;;;;;5031471;28;20053;-45
2021/05/12 07:13:33;;;;;;;4.57;1.60;;;23.50;50.80;;;;;;5027676;28;20056;-48
2021/05/12 07:16:01;;;;;;;4.15;1.90;;;23.40;50.40;;;;;;5029331;28;20523;-44
2021/05/12 07:18:27;;;;;;;5.82;2.00;;;23.40;50.50;;;;;;5024411;28;20025;-45
2021/05/12 07:20:53;;;;;;;2.95;1.65;;;23.40;50.60;;;;;;5020635;28;20044;-48
2021/05/12 07:23:21;;;;;;;2.97;1.55;;;23.40;50.50;;;;;;5023166;28;20112;-47
2021/05/12 07:25:48;;;;;;;6.07;1.95;;;23.40;50.60;;;;;;5039548;28;20028;-48
2021/05/12 07:28:15;;;;;;;3.70;1.88;;;23.40;50.40;;;;;;5018300;28;20531;-44
2021/05/12 07:30:42;;;;;;;6.93;1.52;;;23.40;50.30;;;;;;5026493;28;20478;-46
2021/05/12 07:33:08;;;;;;;5.47;1.50;;;23.50;50.20;;;;;;5021831;28;20033;-46
2021/05/12 07:35:34;;;;;;;5.88;1.30;;;23.50;50.10;;;;;;5015752;28;20021;-47
2021/05/12 07:38:00;;;;;;;2.00;0.95;;;23.60;50.30;;;;;;5018071;28;20107;-47
2021/05/12 07:40:31;;;;;;;3.70;0.80;;;23.80;50.10;;;;;;5023200;28;20109;-47
2021/05/12 07:42:59;;;;;;;1.90;0.60;;;23.90;49.80;;;;;;5018552;28;20486;-50
2021/05/12 07:45:25;;;;;;;5.95;0.50;;;24.00;49.60;;;;;;5019982;28;20080;-48
2021/05/12 07:47:52;;;;;;;2.13;0.30;;;24.10;49.70;;;;;;5032933;28;20185;-45
2021/05/12 07:50:18;;;;;;;2.30;0.50;;;24.10;49.60;;;;;;5035055;28;20052;-47
2021/05/12 07:52:44;;;;;;;2.28;0.30;;;24.10;49.60;;;;;;5029152;28;20034;-46
2021/05/12 07:55:10;;;;;;;0.50;0.20;;;24.10;49.70;;;;;;5024572;28;20030;-47
2021/05/12 07:57:36;;;;;;;3.95;0.57;;;24.20;49.70;;;;;;5046027;22;20052;-49
2021/05/12 08:00:06;;;;;;;0.65;0.10;;;24.20;49.80;;;;;;5042415;28;20071;-51
2021/05/12 08:02:31;;;;;;;1.02;0.15;;;24.20;49.90;;;;;;5046810;28;20025;-48
2021/05/12 08:04:57;;;;;;;0.98;0.25;;;24.20;49.90;;;;;;5048110;28;20025;-43
2021/05/12 08:07:23;;;;;;;1.55;0.20;;;24.30;49.90;;;;;;5042661;28;20486;-45
2021/05/12 08:09:49;;;;;;;0.40;0.20;;;24.30;49.90;;;;;;5037854;28;20033;-50
2021/05/12 08:12:15;;;;;;;0.70;0.20;;;24.30;49.90;;;;;;5029448;28;20022;-50
2021/05/12 08:14:41;;;;;;;0.43;0.10;;;24.30;50.00;;;;;;5032010;28;20025;-47
2021/05/12 08:17:08;;;;;;;0.82;0.15;;;24.40;50.00;;;;;;5024060;28;20390;-48
2021/05/12 08:19:34;;;;;;;2.95;0.20;;;24.40;50.20;;;;;;5025635;28;20030;-46
2021/05/12 08:22:04;;;;;;;1.13;0.25;;;24.30;50.10;;;;;;5026491;28;20025;-47
2021/05/12 08:24:31;;;;;;;3.30;0.25;;;24.30;50.20;;;;;;5025659;28;20018;-47
2021/05/12 08:26:57;;;;;;;2.88;0.30;;;24.30;50.10;;;;;;5025054;28;20498;-47
2021/05/12 08:29:24;;;;;;;1.77;0.30;;;24.30;50.00;;;;;;5027213;28;20186;-46
2021/05/12 08:31:50;;;;;;;1.70;0.20;;;24.30;50.10;;;;;;5031903;28;20055;-50
2021/05/12 08:34:16;;;;;;;3.88;0.20;;;24.30;50.00;;;;;;5022674;28;20021;-47
2021/05/12 08:36:42;;;;;;;0.95;0.20;;;24.30;50.00;;;;;;5027910;28;20034;-47
2021/05/12 08:39:09;;;;;;;1.38;0.30;;;24.30;50.00;;;;;;5021206;28;20021;-49
2021/05/12 08:41:35;;;;;;;2.38;0.20;;;24.30;49.90;;;;;;5023798;28;20108;-47
2021/05/12 08:44:05;;;;;;;1.17;0.30;;;24.30;49.90;;;;;;5021753;28;20554;-47
2021/05/12 08:46:32;;;;;;;0.73;0.20;;;24.40;49.90;;;;;;5025862;28;20034;-48
2021/05/12 08:48:59;;;;;;;3.33;0.30;;;24.40;49.80;;;;;;5028805;28;20493;-48
2021/05/12 08:51:26;;;;;;;0.90;0.13;;;24.30;49.80;;;;;;5022979;28;20044;-46
2021/05/12 08:53:57;;;;;;;1.98;0.30;;;24.30;49.80;;;;;;5026591;28;20355;-47
2021/05/12 08:56:23;;;;;;;0.77;0.20;;;24.30;49.80;;;;;;5030270;28;20025;-48
2021/05/12 08:58:50;;;;;;;0.40;0.10;;;24.30;49.80;;;;;;5030137;28;20029;-46
2021/05/12 09:01:17;;;;;;;1.40;0.20;;;24.30;49.70;;;;;;5031652;28;20106;-47
2021/05/12 09:03:44;;;;;;;0.70;0.30;;;24.30;49.70;;;;;;5021621;28;20084;-49
2021/05/12 09:06:10;;;;;;;0.88;0.20;;;24.40;49.70;;;;;;5022651;28;20136;-45
2021/05/12 09:08:36;;;;;;;0.40;0.20;;;24.50;49.70;;;;;;5029814;28;20560;-47
2021/05/12 09:11:03;;;;;;;2.78;0.28;;;24.50;49.70;;;;;;5027408;28;20091;-46
2021/05/12 09:13:30;;;;;;;0.50;0.20;;;24.50;49.80;;;;;;5028996;28;20667;-46
2021/05/12 09:16:21;;;;;;;0.70;0.25;;;24.60;49.90;;;;;;5026355;28;20044;-43
2021/05/12 09:18:49;;;;;;;1.55;0.20;;;24.60;49.90;;;;;;5024216;28;20034;-48
2021/05/12 09:21:16;;;;;;;0.80;0.20;;;24.60;50.00;;;;;;5026909;28;20037;-45
2021/05/12 09:23:43;;;;;;;1.27;0.35;;;24.60;49.90;;;;;;5025621;28;20457;-49
2021/05/12 09:26:14;;;;;;;2.85;0.35;;;24.70;50.00;;;;;;5023835;28;20305;-45
2021/05/12 09:28:41;;;;;;;1.35;0.20;;;24.70;50.30;;;;;;5023268;28;20067;-44
2021/05/12 09:31:11;;;;;;;0.70;0.30;;;24.70;50.30;;;;;;5027156;28;20132;-46
2021/05/12 09:33:39;;;;;;;0.55;0.20;;;24.70;50.30;;;;;;5025929;28;20036;-44
2021/05/12 09:36:07;;;;;;;1.58;0.22;;;24.70;50.40;;;;;;5028181;28;20390;-47
2021/05/12 09:38:35;;;;;;;1.25;0.20;;;24.70;50.20;;;;;;5030831;28;20158;-49
2021/05/12 09:41:10;;;;;;;1.15;0.40;;;24.70;50.20;;;;;;5021681;28;20025;-49
2021/05/12 09:43:44;;;;;;;1.33;0.30;;;24.70;50.30;;;;;;5031080;28;20021;-49
2021/05/12 09:46:16;;;;;;;0.88;0.17;;;24.70;50.30;;;;;;5031587;28;20277;-48
2021/05/12 09:49:00;;;;;;;4.38;0.32;;;24.70;50.30;;;;;;5028895;28;20044;-48
2021/05/12 09:51:28;;;;;;;1.23;0.30;;;24.70;50.20;;;;;;5031111;28;20187;-48
2021/05/12 09:54:13;;;;;;;1.40;0.30;;;24.70;50.30;;;;;;5024009;28;20032;-48
2021/05/12 09:56:45;;;;;;;1.10;0.50;;;24.70;50.20;;;;;;5027324;28;20017;-45
2021/05/12 09:59:14;;;;;;;1.33;0.30;;;24.80;50.20;;;;;;5026843;28;20037;-48
2021/05/12 10:01:42;;;;;;;0.98;0.20;;;24.80;50.30;;;;;;5027634;28;20112;-49
2021/05/12 10:04:32;;;;;;;0.73;0.32;;;24.70;50.30;;;;;;5028524;28;20029;-46
2021/05/12 10:07:01;;;;;;;0.88;0.20;;;24.80;50.40;;;;;;5025347;28;20502;-51
2021/05/12 10:09:28;;;;;;;0.70;0.20;;;24.80;50.30;;;;;;5030801;28;20022;-48
2021/05/12 10:12:04;;;;;;;0.63;0.38;;;24.80;50.30;;;;;;5028329;28;20025;-48
2021/05/12 10:14:33;;;;;;;2.58;0.25;;;24.80;50.40;;;;;;5019233;28;20026;-48
2021/05/12 10:17:00;;;;;;;2.67;0.25;;;24.80;50.40;;;;;;5026559;28;20575;-47
2021/05/12 10:19:26;;;;;;;0.73;0.10;;;24.90;50.50;;;;;;5028618;28;20032;-47
2021/05/12 10:21:53;;;;;;;2.17;0.40;;;24.90;50.50;;;;;;5028755;28;20048;-48
2021/05/12 10:24:19;;;;;;;3.83;0.30;;;25.00;50.60;;;;;;5034602;28;20029;-47
2021/05/12 10:26:46;;;;;;;0.60;0.30;;;25.00;50.50;;;;;;5029566;28;20486;-50
2021/05/12 10:29:15;;;;;;;1.27;0.20;;;25.00;50.70;;;;;;5027210;28;20060;-49
2021/05/12 10:31:41;;;;;;;2.10;0.28;;;25.00;50.60;;;;;;5032688;28;20375;-48
2021/05/12 10:34:07;;;;;;;1.20;0.20;;;25.00;50.60;;;;;;5037085;28;20029;-47
2021/05/12 10:36:33;;;;;;;1.38;0.40;;;25.00;50.50;;;;;;5037701;28;20033;-46
2021/05/12 10:39:04;;;;;;;0.55;0.13;;;25.00;50.60;;;;;;5036087;28;20033;-49
2021/05/12 10:41:45;;;;;;;0.57;0.30;;;25.00;50.80;;;;;;5033980;28;20528;-45
2021/05/12 10:46:48;;;;;;;0.85;0.20;;;25.00;50.60;;;;;;5034100;28;20026;-48
2021/05/12 10:49:22;;;;;;;1.10;0.30;;;25.00;50.60;;;;;;5028948;28;20051;-47
2021/05/12 10:51:50;;;;;;;0.60;0.20;;;25.00;50.50;;;;;;5031299;28;20398;-47
2021/05/12 10:54:37;;;;;;;0.80;0.28;;;25.10;50.50;;;;;;5025222;28;20032;-51
2021/05/12 10:57:03;;;;;;;1.13;0.30;;;25.10;50.50;;;;;;5030618;28;20037;-46
2021/05/12 10:59:29;;;;;;;0.50;0.20;;;25.10;50.50;;;;;;5031145;28;20120;-46
2021/05/12 11:01:55;;;;;;;0.93;0.32;;;25.10;50.50;;;;;;5036147;28;20032;-51
2021/05/12 11:04:22;;;;;;;2.92;0.28;;;25.10;50.50;;;;;;5038229;28;20032;-50
2021/05/12 11:06:52;;;;;;;2.35;0.20;;;25.10;50.80;;;;;;5033245;28;20071;-50
2021/05/12 11:09:22;;;;;;;1.35;0.35;;;25.20;51.00;;;;;;5032481;28;20025;-50
2021/05/12 11:11:48;;;;;;;0.60;0.20;;;25.20;50.80;;;;;;5034453;28;20056;-51
2021/05/12 11:14:27;;;;;;;1.42;0.20;;;25.20;51.00;;;;;;5032144;28;20071;-51
2021/05/12 11:17:12;;;;;;;2.45;0.38;;;25.20;51.20;;;;;;5030415;28;20410;-50
2021/05/12 11:25:48;;;;;;;1.48;0.30;;;25.20;50.40;;;;;;5029122;28;20025;-48
2021/05/12 11:33:27;;;;;;;1.05;0.30;;;25.30;50.90;;;;;;5030695;28;20064;-50
2021/05/12 11:36:01;;;;;;;1.67;0.40;;;25.30;51.30;;;;;;5031362;28;20024;-49
2021/05/12 11:38:27;;;;;;;3.08;0.50;;;25.30;50.70;;;;;;5026976;28;20041;-50
2021/05/12 11:41:04;;;;;;;1.50;0.30;;;25.30;51.00;;;;;;5028264;28;20048;-46
2021/05/12 11:43:41;;;;;;;0.98;0.20;;;25.30;51.10;;;;;;5031190;28;20033;-49
2021/05/12 11:46:08;;;;;;;1.15;0.30;;;25.40;51.20;;;;;;5029351;28;20112;-45
2021/05/12 11:48:46;;;;;;;0.85;0.30;;;25.20;51.00;;;;;;5029825;28;20028;-50
2021/05/12 11:51:28;;;;;;;0.50;0.25;;;25.20;50.80;;;;;;5028405;28;20036;-49
2021/05/12 11:53:54;;;;;;;0.98;0.32;;;25.30;50.80;;;;;;5014918;28;20036;-49
2021/05/12 11:56:20;;;;;;;0.80;0.40;;;25.30;50.70;;;;;;5027935;28;20033;-49
2021/05/12 11:59:01;;;;;;;0.70;0.20;;;25.30;50.60;;;;;;5025252;28;20501;-49
2021/05/12 12:01:29;;;;;;;4.72;0.22;;;25.40;50.30;;;;;;5029943;28;20376;-50
2021/05/12 12:06:46;;;;;;;1.17;0.30;;;25.40;50.40;;;;;;5024868;28;20030;-49
2021/05/12 12:09:14;;;;;;;1.40;0.50;;;25.30;49.90;;;;;;5033943;28;20080;-50
2021/05/12 12:11:43;;;;;;;1.05;0.57;;;25.20;47.70;;;;;;5038073;28;20041;-49
2021/05/12 12:14:10;;;;;;;1.42;0.32;;;25.10;48.00;;;;;;5032042;28;20049;-49
2021/05/12 12:16:38;;;;;;;2.83;0.73;;;25.10;48.00;;;;;;5031978;28;20021;-50
2021/05/12 12:19:18;;;;;;;1.95;0.68;;;25.00;47.90;;;;;;5030945;28;20055;-49
2021/05/12 12:21:46;;;;;;;5.55;0.70;;;25.00;47.70;;;;;;5030574;28;20025;-50
2021/05/12 12:24:16;;;;;;;1.90;0.57;;;24.90;47.50;;;;;;5025756;28;20030;-46
2021/05/12 12:26:47;;;;;;;2.35;0.52;;;24.90;47.30;;;;;;5031169;28;20049;-47
2021/05/12 12:29:13;;;;;;;1.95;0.63;;;25.00;47.30;;;;;;5026526;28;20523;-45
2021/05/12 12:31:48;;;;;;;3.65;0.40;;;25.00;47.10;;;;;;5032163;28;20037;-48
2021/05/12 12:34:16;;;;;;;3.70;0.50;;;25.00;46.40;;;;;;5031882;28;20131;-47
2021/05/12 12:36:45;;;;;;;2.15;0.55;;;24.90;45.60;;;;;;5039798;28;20029;-50
2021/05/12 12:39:11;;;;;;;2.63;0.38;;;24.80;45.70;;;;;;5031540;28;20052;-52
2021/05/12 12:41:37;;;;;;;2.70;0.47;;;24.90;46.10;;;;;;5024004;28;20103;-50
2021/05/12 12:44:04;;;;;;;3.78;0.40;;;24.80;45.90;;;;;;5024369;28;20033;-49
2021/05/12 12:46:30;;;;;;;2.42;0.30;;;24.80;45.40;;;;;;5027780;28;20083;-51
2021/05/12 12:48:55;;;;;;;1.15;0.30;;;24.80;45.30;;;;;;5028603;28;20030;-50
2021/05/12 12:51:41;;;;;;;3.42;0.38;;;24.80;45.70;;;;;;5035780;28;20597;-50
2021/05/12 12:54:07;;;;;;;1.92;0.50;;;24.80;45.50;;;;;;5024093;28;20037;-49
2021/05/12 12:56:34;;;;;;;3.20;0.80;;;24.80;45.50;;;;;;5027077;28;20026;-49
2021/05/12 12:59:11;;;;;;;12.02;0.40;;;24.80;45.60;;;;;;5027242;28;20171;-51
2021/05/12 13:01:38;;;;;;;4.03;0.65;;;24.90;45.50;;;;;;5029533;28;20028;-49
2021/05/12 13:04:18;;;;;;;2.85;0.20;;;24.90;45.60;;;;;;5027692;28;20034;-51
2021/05/12 13:06:59;;;;;;;1.42;0.50;;;24.90;45.40;;;;;;5032971;28;20100;-47